sensor_id;sensor_type;location;lat;lon;timestamp;P1;durP1;ratioP1;P2;durP2;ratioP2
16531;SDS011;8378;57.698;11.958;2022-08-23T00:01:32;3.83;;;1.85;;
16531;SDS011;8378;57.698;11.958;2022-08-23T00:04:00;2.58;;;1.80;;
16531;SDS011;8378;57.698;11.958;2022-08-23T00:06:30;3.92;;;1.70;;
16531;SDS011;8378;57.698;11.958;2022-08-23T00:08:56;2.83;;;1.90;;
16531;SDS011;8378;57.698;11.958;2022-08-23T00:11:45;3.95;;;2.00;;
16531;SDS011;8378;57.698;11.958;2022-08-23T00:14:15;4.13;;;2.20;;
16531;SDS011;8378;57.698;11.958;2022-08-23T00:16:44;2.67;;;1.85;;
16531;SDS011;8378;57.698;11.958;2022-08-23T00:19:11;3.22;;;2.05;;
16531;SDS011;8378;57.698;11.958;2022-08-23T00:21:40;3.17;;;1.90;;
16531;SDS011;8378;57.698;11.958;2022-08-23T00:24:08;2.97;;;1.70;;
16531;SDS011;8378;57.698;11.958;2022-08-23T00:26:49;2.78;;;1.80;;
16531;SDS011;8378;57.698;11.958;2022-08-23T00:29:20;2.58;;;1.73;;
16531;SDS011;8378;57.698;11.958;2022-08-23T00:31:47;7.75;;;1.88;;
16531;SDS011;8378;57.698;11.958;2022-08-23T00:34:14;2.40;;;1.70;;
16531;SDS011;8378;57.698;11.958;2022-08-23T00:36:39;2.95;;;1.98;;
16531;SDS011;8378;57.698;11.958;2022-08-23T00:39:06;3.53;;;1.80;;
16531;SDS011;8378;57.698;11.958;2022-08-23T00:41:32;3.22;;;2.00;;
16531;SDS011;8378;57.698;11.958;2022-08-23T00:43:59;3.47;;;1.85;;
16531;SDS011;8378;57.698;11.958;2022-08-23T00:46:45;4.75;;;2.10;;
16531;SDS011;8378;57.698;11.958;2022-08-23T00:49:52;2.88;;;1.67;;
16531;SDS011;8378;57.698;11.958;2022-08-23T00:52:24;3.33;;;1.95;;
16531;SDS011;8378;57.698;11.958;2022-08-23T00:55:06;2.13;;;1.60;;
16531;SDS011;8378;57.698;11.958;2022-08-23T00:57:32;4.05;;;1.73;;
16531;SDS011;8378;57.698;11.958;2022-08-23T00:59:58;2.50;;;1.50;;
16531;SDS011;8378;57.698;11.958;2022-08-23T01:02:24;2.33;;;1.70;;
16531;SDS011;8378;57.698;11.958;2022-08-23T01:04:57;4.30;;;1.77;;
16531;SDS011;8378;57.698;11.958;2022-08-23T01:10:21;2.88;;;1.92;;
16531;SDS011;8378;57.698;11.958;2022-08-23T01:12:53;2.70;;;1.80;;
16531;SDS011;8378;57.698;11.958;2022-08-23T01:15:36;2.92;;;1.90;;
16531;SDS011;8378;57.698;11.958;2022-08-23T01:18:16;3.33;;;1.63;;
16531;SDS011;8378;57.698;11.958;2022-08-23T01:20:57;3.55;;;1.73;;
16531;SDS011;8378;57.698;11.958;2022-08-23T01:23:48;3.03;;;1.70;;
16531;SDS011;8378;57.698;11.958;2022-08-23T01:26:17;3.20;;;1.65;;
16531;SDS011;8378;57.698;11.958;2022-08-23T01:28:44;3.53;;;2.00;;
16531;SDS011;8378;57.698;11.958;2022-08-23T01:31:10;1.90;;;1.70;;
16531;SDS011;8378;57.698;11.958;2022-08-23T01:33:37;2.47;;;2.00;;
16531;SDS011;8378;57.698;11.958;2022-08-23T01:36:05;3.47;;;2.13;;
16531;SDS011;8378;57.698;11.958;2022-08-23T01:38:34;4.05;;;1.88;;
16531;SDS011;8378;57.698;11.958;2022-08-23T01:41:00;2.63;;;1.60;;
16531;SDS011;8378;57.698;11.958;2022-08-23T01:43:26;3.30;;;1.80;;
16531;SDS011;8378;57.698;11.958;2022-08-23T01:45:52;3.40;;;1.80;;
16531;SDS011;8378;57.698;11.958;2022-08-23T01:48:19;3.22;;;1.80;;
16531;SDS011;8378;57.698;11.958;2022-08-23T01:50:46;3.17;;;1.67;;
16531;SDS011;8378;57.698;11.958;2022-08-23T01:53:12;3.15;;;1.85;;
16531;SDS011;8378;57.698;11.958;2022-08-23T01:55:39;2.17;;;1.95;;
16531;SDS011;8378;57.698;11.958;2022-08-23T01:58:06;2.47;;;1.38;;
16531;SDS011;8378;57.698;11.958;2022-08-23T02:00:33;2.58;;;1.73;;
16531;SDS011;8378;57.698;11.958;2022-08-23T02:03:01;2.80;;;1.63;;
16531;SDS011;8378;57.698;11.958;2022-08-23T02:05:27;2.42;;;1.52;;
16531;SDS011;8378;57.698;11.958;2022-08-23T02:07:53;3.03;;;1.60;;
16531;SDS011;8378;57.698;11.958;2022-08-23T02:10:19;4.55;;;1.77;;
16531;SDS011;8378;57.698;11.958;2022-08-23T02:12:45;2.92;;;1.50;;
16531;SDS011;8378;57.698;11.958;2022-08-23T02:15:12;5.70;;;1.88;;
16531;SDS011;8378;57.698;11.958;2022-08-23T02:17:39;2.20;;;1.42;;
16531;SDS011;8378;57.698;11.958;2022-08-23T02:20:05;2.05;;;1.60;;
16531;SDS011;8378;57.698;11.958;2022-08-23T02:22:32;1.85;;;1.65;;
16531;SDS011;8378;57.698;11.958;2022-08-23T02:24:58;3.08;;;1.63;;
16531;SDS011;8378;57.698;11.958;2022-08-23T02:27:24;3.60;;;1.58;;
16531;SDS011;8378;57.698;11.958;2022-08-23T02:29:49;3.63;;;1.60;;
16531;SDS011;8378;57.698;11.958;2022-08-23T02:32:16;3.33;;;1.63;;
16531;SDS011;8378;57.698;11.958;2022-08-23T02:34:43;2.00;;;1.30;;
16531;SDS011;8378;57.698;11.958;2022-08-23T02:37:10;2.90;;;1.40;;
16531;SDS011;8378;57.698;11.958;2022-08-23T02:39:37;3.95;;;1.60;;
16531;SDS011;8378;57.698;11.958;2022-08-23T02:42:03;4.63;;;1.70;;
16531;SDS011;8378;57.698;11.958;2022-08-23T02:44:29;4.82;;;1.63;;
16531;SDS011;8378;57.698;11.958;2022-08-23T02:46:58;6.30;;;1.80;;
16531;SDS011;8378;57.698;11.958;2022-08-23T02:49:24;2.25;;;1.65;;
16531;SDS011;8378;57.698;11.958;2022-08-23T02:51:50;3.45;;;1.98;;
16531;SDS011;8378;57.698;11.958;2022-08-23T02:54:15;2.50;;;1.50;;
16531;SDS011;8378;57.698;11.958;2022-08-23T02:56:41;3.53;;;1.30;;
16531;SDS011;8378;57.698;11.958;2022-08-23T02:59:07;2.80;;;1.38;;
16531;SDS011;8378;57.698;11.958;2022-08-23T03:01:34;3.10;;;1.30;;
16531;SDS011;8378;57.698;11.958;2022-08-23T03:04:05;2.10;;;1.50;;
16531;SDS011;8378;57.698;11.958;2022-08-23T03:06:33;1.80;;;1.30;;
16531;SDS011;8378;57.698;11.958;2022-08-23T03:09:00;3.75;;;1.33;;
16531;SDS011;8378;57.698;11.958;2022-08-23T03:11:26;2.90;;;1.50;;
16531;SDS011;8378;57.698;11.958;2022-08-23T03:13:53;3.00;;;1.30;;
16531;SDS011;8378;57.698;11.958;2022-08-23T03:16:20;2.05;;;1.40;;
16531;SDS011;8378;57.698;11.958;2022-08-23T03:18:46;2.65;;;1.38;;
16531;SDS011;8378;57.698;11.958;2022-08-23T03:21:15;2.65;;;1.58;;
16531;SDS011;8378;57.698;11.958;2022-08-23T03:23:41;2.97;;;1.58;;
16531;SDS011;8378;57.698;11.958;2022-08-23T03:26:08;2.97;;;1.52;;
16531;SDS011;8378;57.698;11.958;2022-08-23T03:28:35;2.33;;;1.40;;
16531;SDS011;8378;57.698;11.958;2022-08-23T03:31:03;1.50;;;1.40;;
16531;SDS011;8378;57.698;11.958;2022-08-23T03:33:29;1.80;;;1.30;;
16531;SDS011;8378;57.698;11.958;2022-08-23T03:35:59;2.72;;;1.50;;
16531;SDS011;8378;57.698;11.958;2022-08-23T03:38:26;4.05;;;1.75;;
16531;SDS011;8378;57.698;11.958;2022-08-23T03:40:52;3.40;;;1.60;;
16531;SDS011;8378;57.698;11.958;2022-08-23T03:43:18;3.55;;;1.60;;
16531;SDS011;8378;57.698;11.958;2022-08-23T03:45:44;2.97;;;1.30;;
16531;SDS011;8378;57.698;11.958;2022-08-23T03:48:10;3.92;;;1.40;;
16531;SDS011;8378;57.698;11.958;2022-08-23T03:50:36;2.13;;;1.30;;
16531;SDS011;8378;57.698;11.958;2022-08-23T03:53:02;1.67;;;1.20;;
16531;SDS011;8378;57.698;11.958;2022-08-23T03:55:28;2.85;;;1.63;;
16531;SDS011;8378;57.698;11.958;2022-08-23T03:57:54;2.25;;;1.30;;
16531;SDS011;8378;57.698;11.958;2022-08-23T04:00:19;3.13;;;1.40;;
16531;SDS011;8378;57.698;11.958;2022-08-23T04:02:45;3.95;;;1.55;;
16531;SDS011;8378;57.698;11.958;2022-08-23T04:05:11;4.53;;;1.83;;
16531;SDS011;8378;57.698;11.958;2022-08-23T04:07:37;3.78;;;1.50;;
16531;SDS011;8378;57.698;11.958;2022-08-23T04:10:04;2.90;;;1.40;;
16531;SDS011;8378;57.698;11.958;2022-08-23T04:12:32;2.85;;;1.70;;
16531;SDS011;8378;57.698;11.958;2022-08-23T04:14:57;3.03;;;1.52;;
16531;SDS011;8378;57.698;11.958;2022-08-23T04:17:23;2.63;;;1.40;;
16531;SDS011;8378;57.698;11.958;2022-08-23T04:19:48;2.13;;;1.67;;
16531;SDS011;8378;57.698;11.958;2022-08-23T04:22:15;2.08;;;1.58;;
16531;SDS011;8378;57.698;11.958;2022-08-23T04:24:42;2.28;;;1.45;;
16531;SDS011;8378;57.698;11.958;2022-08-23T04:27:09;3.20;;;1.65;;
16531;SDS011;8378;57.698;11.958;2022-08-23T04:29:36;3.50;;;1.70;;
16531;SDS011;8378;57.698;11.958;2022-08-23T04:32:05;1.98;;;1.48;;
16531;SDS011;8378;57.698;11.958;2022-08-23T04:34:32;5.30;;;1.70;;
16531;SDS011;8378;57.698;11.958;2022-08-23T04:36:59;2.13;;;1.50;;
16531;SDS011;8378;57.698;11.958;2022-08-23T04:39:25;2.10;;;1.63;;
16531;SDS011;8378;57.698;11.958;2022-08-23T04:41:51;3.10;;;1.70;;
16531;SDS011;8378;57.698;11.958;2022-08-23T04:44:35;3.67;;;1.60;;
16531;SDS011;8378;57.698;11.958;2022-08-23T04:47:01;2.05;;;1.60;;
16531;SDS011;8378;57.698;11.958;2022-08-23T04:49:27;2.78;;;1.58;;
16531;SDS011;8378;57.698;11.958;2022-08-23T04:51:52;1.90;;;1.50;;
16531;SDS011;8378;57.698;11.958;2022-08-23T04:54:18;3.10;;;1.92;;
16531;SDS011;8378;57.698;11.958;2022-08-23T04:56:44;3.53;;;1.70;;
16531;SDS011;8378;57.698;11.958;2022-08-23T04:59:10;5.43;;;1.63;;
16531;SDS011;8378;57.698;11.958;2022-08-23T05:01:36;3.60;;;1.60;;
16531;SDS011;8378;57.698;11.958;2022-08-23T05:04:02;2.88;;;1.75;;
16531;SDS011;8378;57.698;11.958;2022-08-23T05:06:28;3.33;;;1.50;;
16531;SDS011;8378;57.698;11.958;2022-08-23T05:08:55;2.35;;;1.55;;
16531;SDS011;8378;57.698;11.958;2022-08-23T05:11:21;4.13;;;1.90;;
16531;SDS011;8378;57.698;11.958;2022-08-23T05:13:47;3.08;;;1.65;;
16531;SDS011;8378;57.698;11.958;2022-08-23T05:16:13;2.97;;;1.60;;
16531;SDS011;8378;57.698;11.958;2022-08-23T05:18:39;3.05;;;1.50;;
16531;SDS011;8378;57.698;11.958;2022-08-23T05:21:05;4.43;;;1.52;;
16531;SDS011;8378;57.698;11.958;2022-08-23T05:23:31;2.50;;;1.45;;
16531;SDS011;8378;57.698;11.958;2022-08-23T05:25:57;4.07;;;1.90;;
16531;SDS011;8378;57.698;11.958;2022-08-23T05:28:31;4.47;;;1.75;;
16531;SDS011;8378;57.698;11.958;2022-08-23T05:33:35;3.80;;;1.63;;
16531;SDS011;8378;57.698;11.958;2022-08-23T05:36:02;3.30;;;1.88;;
16531;SDS011;8378;57.698;11.958;2022-08-23T05:38:28;3.40;;;1.83;;
16531;SDS011;8378;57.698;11.958;2022-08-23T05:40:55;9.75;;;2.60;;
16531;SDS011;8378;57.698;11.958;2022-08-23T05:43:22;4.30;;;2.25;;
16531;SDS011;8378;57.698;11.958;2022-08-23T05:45:58;4.13;;;2.22;;
16531;SDS011;8378;57.698;11.958;2022-08-23T05:48:31;5.80;;;2.03;;
16531;SDS011;8378;57.698;11.958;2022-08-23T05:51:10;8.85;;;2.25;;
16531;SDS011;8378;57.698;11.958;2022-08-23T05:53:38;6.25;;;2.20;;
16531;SDS011;8378;57.698;11.958;2022-08-23T05:56:15;3.63;;;2.05;;
16531;SDS011;8378;57.698;11.958;2022-08-23T05:58:46;7.05;;;1.92;;
16531;SDS011;8378;57.698;11.958;2022-08-23T06:01:13;4.35;;;2.08;;
16531;SDS011;8378;57.698;11.958;2022-08-23T06:03:40;4.55;;;1.60;;
16531;SDS011;8378;57.698;11.958;2022-08-23T06:06:06;6.43;;;2.00;;
16531;SDS011;8378;57.698;11.958;2022-08-23T06:08:32;6.15;;;2.00;;
16531;SDS011;8378;57.698;11.958;2022-08-23T06:11:00;5.47;;;1.95;;
16531;SDS011;8378;57.698;11.958;2022-08-23T06:13:27;4.55;;;1.90;;
16531;SDS011;8378;57.698;11.958;2022-08-23T06:15:54;3.47;;;1.75;;
16531;SDS011;8378;57.698;11.958;2022-08-23T06:18:20;5.93;;;2.13;;
16531;SDS011;8378;57.698;11.958;2022-08-23T06:20:46;3.53;;;1.70;;
16531;SDS011;8378;57.698;11.958;2022-08-23T06:23:12;3.55;;;1.80;;
16531;SDS011;8378;57.698;11.958;2022-08-23T06:25:38;3.85;;;1.70;;
16531;SDS011;8378;57.698;11.958;2022-08-23T06:28:04;6.18;;;1.90;;
16531;SDS011;8378;57.698;11.958;2022-08-23T06:30:30;4.55;;;1.85;;
16531;SDS011;8378;57.698;11.958;2022-08-23T06:32:56;3.67;;;1.60;;
16531;SDS011;8378;57.698;11.958;2022-08-23T06:35:21;4.03;;;1.85;;
16531;SDS011;8378;57.698;11.958;2022-08-23T06:37:47;3.80;;;1.85;;
16531;SDS011;8378;57.698;11.958;2022-08-23T06:40:13;3.85;;;1.58;;
16531;SDS011;8378;57.698;11.958;2022-08-23T06:42:39;2.97;;;1.88;;
16531;SDS011;8378;57.698;11.958;2022-08-23T06:45:04;5.18;;;1.63;;
16531;SDS011;8378;57.698;11.958;2022-08-23T06:47:34;5.45;;;1.70;;
16531;SDS011;8378;57.698;11.958;2022-08-23T06:50:01;2.40;;;1.50;;
16531;SDS011;8378;57.698;11.958;2022-08-23T06:52:26;7.05;;;1.77;;
16531;SDS011;8378;57.698;11.958;2022-08-23T06:54:52;5.18;;;1.80;;
16531;SDS011;8378;57.698;11.958;2022-08-23T06:57:17;3.88;;;1.90;;
16531;SDS011;8378;57.698;11.958;2022-08-23T06:59:44;3.97;;;1.80;;
16531;SDS011;8378;57.698;11.958;2022-08-23T07:02:11;3.72;;;1.70;;
16531;SDS011;8378;57.698;11.958;2022-08-23T07:04:38;3.10;;;1.70;;
16531;SDS011;8378;57.698;11.958;2022-08-23T07:07:04;5.47;;;1.75;;
16531;SDS011;8378;57.698;11.958;2022-08-23T07:09:31;2.38;;;1.70;;
16531;SDS011;8378;57.698;11.958;2022-08-23T07:11:57;3.70;;;1.70;;
16531;SDS011;8378;57.698;11.958;2022-08-23T07:14:24;3.38;;;1.55;;
16531;SDS011;8378;57.698;11.958;2022-08-23T07:16:51;2.90;;;1.63;;
16531;SDS011;8378;57.698;11.958;2022-08-23T07:19:20;2.72;;;1.80;;
16531;SDS011;8378;57.698;11.958;2022-08-23T07:21:47;4.07;;;1.90;;
16531;SDS011;8378;57.698;11.958;2022-08-23T07:24:13;3.53;;;1.60;;
16531;SDS011;8378;57.698;11.958;2022-08-23T07:26:40;4.10;;;1.73;;
16531;SDS011;8378;57.698;11.958;2022-08-23T07:29:07;4.53;;;1.85;;
16531;SDS011;8378;57.698;11.958;2022-08-23T07:31:37;2.70;;;1.65;;
16531;SDS011;8378;57.698;11.958;2022-08-23T07:34:05;3.42;;;1.70;;
16531;SDS011;8378;57.698;11.958;2022-08-23T07:36:32;2.72;;;1.50;;
16531;SDS011;8378;57.698;11.958;2022-08-23T07:38:59;3.38;;;1.95;;
16531;SDS011;8378;57.698;11.958;2022-08-23T07:41:27;3.70;;;1.65;;
16531;SDS011;8378;57.698;11.958;2022-08-23T07:43:56;4.30;;;1.92;;
16531;SDS011;8378;57.698;11.958;2022-08-23T07:46:24;2.75;;;1.70;;
16531;SDS011;8378;57.698;11.958;2022-08-23T07:48:50;4.68;;;1.80;;
16531;SDS011;8378;57.698;11.958;2022-08-23T07:51:16;3.85;;;1.63;;
16531;SDS011;8378;57.698;11.958;2022-08-23T07:53:42;4.60;;;1.92;;
16531;SDS011;8378;57.698;11.958;2022-08-23T07:56:10;4.88;;;1.90;;
16531;SDS011;8378;57.698;11.958;2022-08-23T07:58:37;3.45;;;1.50;;
16531;SDS011;8378;57.698;11.958;2022-08-23T08:01:10;2.80;;;1.50;;
16531;SDS011;8378;57.698;11.958;2022-08-23T08:03:55;4.05;;;1.63;;
16531;SDS011;8378;57.698;11.958;2022-08-23T08:08:51;6.55;;;1.58;;
16531;SDS011;8378;57.698;11.958;2022-08-23T08:11:18;3.00;;;1.50;;
16531;SDS011;8378;57.698;11.958;2022-08-23T08:13:45;2.78;;;1.58;;
16531;SDS011;8378;57.698;11.958;2022-08-23T08:16:24;4.75;;;1.80;;
16531;SDS011;8378;57.698;11.958;2022-08-23T08:18:50;4.93;;;1.70;;
16531;SDS011;8378;57.698;11.958;2022-08-23T08:21:17;2.42;;;1.40;;
16531;SDS011;8378;57.698;11.958;2022-08-23T08:23:43;4.07;;;1.70;;
16531;SDS011;8378;57.698;11.958;2022-08-23T08:26:09;3.50;;;1.40;;
16531;SDS011;8378;57.698;11.958;2022-08-23T08:28:36;3.25;;;1.33;;
16531;SDS011;8378;57.698;11.958;2022-08-23T08:31:03;6.30;;;2.00;;
16531;SDS011;8378;57.698;11.958;2022-08-23T08:33:29;2.05;;;1.27;;
16531;SDS011;8378;57.698;11.958;2022-08-23T08:35:56;3.47;;;1.63;;
16531;SDS011;8378;57.698;11.958;2022-08-23T08:38:22;3.35;;;1.45;;
16531;SDS011;8378;57.698;11.958;2022-08-23T08:40:49;2.65;;;1.42;;
16531;SDS011;8378;57.698;11.958;2022-08-23T08:43:50;3.17;;;1.50;;
16531;SDS011;8378;57.698;11.958;2022-08-23T08:46:18;4.70;;;1.65;;
16531;SDS011;8378;57.698;11.958;2022-08-23T08:49:10;2.50;;;1.52;;
16531;SDS011;8378;57.698;11.958;2022-08-23T08:52:08;2.53;;;1.27;;
16531;SDS011;8378;57.698;11.958;2022-08-23T08:54:36;3.00;;;1.52;;
16531;SDS011;8378;57.698;11.958;2022-08-23T08:57:02;1.88;;;1.10;;
16531;SDS011;8378;57.698;11.958;2022-08-23T08:59:43;1.65;;;1.27;;
16531;SDS011;8378;57.698;11.958;2022-08-23T09:02:20;1.73;;;1.25;;
16531;SDS011;8378;57.698;11.958;2022-08-23T09:04:46;2.55;;;1.20;;
16531;SDS011;8378;57.698;11.958;2022-08-23T09:07:23;3.40;;;1.33;;
16531;SDS011;8378;57.698;11.958;2022-08-23T09:09:56;5.13;;;1.50;;
16531;SDS011;8378;57.698;11.958;2022-08-23T09:15:27;3.95;;;1.23;;
16531;SDS011;8378;57.698;11.958;2022-08-23T09:18:17;3.40;;;1.30;;
16531;SDS011;8378;57.698;11.958;2022-08-23T09:20:43;1.58;;;1.10;;
16531;SDS011;8378;57.698;11.958;2022-08-23T09:23:16;3.58;;;1.40;;
16531;SDS011;8378;57.698;11.958;2022-08-23T09:25:53;4.55;;;1.80;;
16531;SDS011;8378;57.698;11.958;2022-08-23T09:28:20;3.78;;;1.30;;
16531;SDS011;8378;57.698;11.958;2022-08-23T09:30:51;2.20;;;1.25;;
16531;SDS011;8378;57.698;11.958;2022-08-23T09:33:41;1.00;;;0.90;;
16531;SDS011;8378;57.698;11.958;2022-08-23T09:38:53;3.50;;;1.27;;
16531;SDS011;8378;57.698;11.958;2022-08-23T09:41:24;2.83;;;1.30;;
16531;SDS011;8378;57.698;11.958;2022-08-23T09:43:53;1.80;;;1.40;;
16531;SDS011;8378;57.698;11.958;2022-08-23T09:46:26;2.35;;;1.15;;
16531;SDS011;8378;57.698;11.958;2022-08-23T09:48:55;3.95;;;1.52;;
16531;SDS011;8378;57.698;11.958;2022-08-23T09:51:27;3.05;;;1.17;;
16531;SDS011;8378;57.698;11.958;2022-08-23T09:56:37;1.90;;;1.27;;
16531;SDS011;8378;57.698;11.958;2022-08-23T10:01:55;3.92;;;1.40;;
16531;SDS011;8378;57.698;11.958;2022-08-23T10:04:23;2.15;;;1.50;;
16531;SDS011;8378;57.698;11.958;2022-08-23T10:07:39;2.25;;;1.40;;
16531;SDS011;8378;57.698;11.958;2022-08-23T10:12:47;3.55;;;1.58;;
16531;SDS011;8378;57.698;11.958;2022-08-23T10:15:14;3.47;;;1.50;;
16531;SDS011;8378;57.698;11.958;2022-08-23T10:20:34;3.15;;;1.50;;
16531;SDS011;8378;57.698;11.958;2022-08-23T10:25:56;1.95;;;1.35;;
16531;SDS011;8378;57.698;11.958;2022-08-23T10:28:41;2.83;;;1.52;;
16531;SDS011;8378;57.698;11.958;2022-08-23T10:37:02;3.25;;;1.83;;
16531;SDS011;8378;57.698;11.958;2022-08-23T10:39:59;4.22;;;1.50;;
16531;SDS011;8378;57.698;11.958;2022-08-23T10:45:52;2.22;;;1.40;;
16531;SDS011;8378;57.698;11.958;2022-08-23T10:48:21;1.98;;;1.20;;
16531;SDS011;8378;57.698;11.958;2022-08-23T10:53:19;3.25;;;1.85;;
16531;SDS011;8378;57.698;11.958;2022-08-23T10:55:55;1.73;;;1.30;;
16531;SDS011;8378;57.698;11.958;2022-08-23T11:01:18;2.67;;;1.42;;
16531;SDS011;8378;57.698;11.958;2022-08-23T11:04:07;3.35;;;1.50;;
16531;SDS011;8378;57.698;11.958;2022-08-23T11:06:53;1.98;;;1.55;;
16531;SDS011;8378;57.698;11.958;2022-08-23T11:11:47;2.63;;;1.50;;
16531;SDS011;8378;57.698;11.958;2022-08-23T11:15:20;2.17;;;1.42;;
16531;SDS011;8378;57.698;11.958;2022-08-23T11:19:59;3.13;;;1.42;;
16531;SDS011;8378;57.698;11.958;2022-08-23T11:22:32;3.97;;;1.48;;
16531;SDS011;8378;57.698;11.958;2022-08-23T11:27:43;3.03;;;1.38;;
16531;SDS011;8378;57.698;11.958;2022-08-23T11:33:20;2.75;;;1.48;;
16531;SDS011;8378;57.698;11.958;2022-08-23T11:36:33;2.47;;;1.60;;
16531;SDS011;8378;57.698;11.958;2022-08-23T11:43:45;3.63;;;1.73;;
16531;SDS011;8378;57.698;11.958;2022-08-23T11:46:36;2.22;;;1.73;;
16531;SDS011;8378;57.698;11.958;2022-08-23T12:03:23;2.85;;;1.50;;
16531;SDS011;8378;57.698;11.958;2022-08-23T12:18:28;5.55;;;2.50;;
16531;SDS011;8378;57.698;11.958;2022-08-23T12:20:57;3.05;;;2.53;;
16531;SDS011;8378;57.698;11.958;2022-08-23T12:23:24;5.88;;;5.28;;
16531;SDS011;8378;57.698;11.958;2022-08-23T12:25:57;5.35;;;4.32;;
16531;SDS011;8378;57.698;11.958;2022-08-23T12:28:32;6.53;;;3.90;;
16531;SDS011;8378;57.698;11.958;2022-08-23T12:31:06;6.25;;;3.88;;
16531;SDS011;8378;57.698;11.958;2022-08-23T12:33:50;4.32;;;3.58;;
16531;SDS011;8378;57.698;11.958;2022-08-23T12:39:21;3.33;;;3.00;;
16531;SDS011;8378;57.698;11.958;2022-08-23T12:41:55;4.97;;;3.08;;
16531;SDS011;8378;57.698;11.958;2022-08-23T12:44:37;5.13;;;2.53;;
16531;SDS011;8378;57.698;11.958;2022-08-23T12:47:11;4.53;;;2.50;;
16531;SDS011;8378;57.698;11.958;2022-08-23T12:49:52;4.90;;;2.75;;
16531;SDS011;8378;57.698;11.958;2022-08-23T12:52:28;3.58;;;2.50;;
16531;SDS011;8378;57.698;11.958;2022-08-23T12:54:56;2.88;;;2.08;;
16531;SDS011;8378;57.698;11.958;2022-08-23T12:57:49;4.47;;;2.22;;
16531;SDS011;8378;57.698;11.958;2022-08-23T13:00:19;2.33;;;1.92;;
16531;SDS011;8378;57.698;11.958;2022-08-23T13:02:54;3.53;;;2.00;;
16531;SDS011;8378;57.698;11.958;2022-08-23T13:05:35;3.67;;;2.10;;
16531;SDS011;8378;57.698;11.958;2022-08-23T13:08:03;3.13;;;2.00;;
16531;SDS011;8378;57.698;11.958;2022-08-23T13:10:35;3.30;;;2.00;;
16531;SDS011;8378;57.698;11.958;2022-08-23T13:13:02;2.75;;;1.80;;
16531;SDS011;8378;57.698;11.958;2022-08-23T13:15:46;4.65;;;1.98;;
16531;SDS011;8378;57.698;11.958;2022-08-23T13:18:25;3.55;;;1.90;;
16531;SDS011;8378;57.698;11.958;2022-08-23T13:23:40;4.20;;;1.88;;
16531;SDS011;8378;57.698;11.958;2022-08-23T13:29:05;2.42;;;1.85;;
16531;SDS011;8378;57.698;11.958;2022-08-23T13:31:53;2.42;;;1.67;;
16531;SDS011;8378;57.698;11.958;2022-08-23T13:37:02;4.10;;;1.90;;
16531;SDS011;8378;57.698;11.958;2022-08-23T13:39:31;3.67;;;1.80;;
16531;SDS011;8378;57.698;11.958;2022-08-23T13:41:58;2.95;;;1.70;;
16531;SDS011;8378;57.698;11.958;2022-08-23T13:44:24;2.97;;;1.80;;
16531;SDS011;8378;57.698;11.958;2022-08-23T13:46:50;3.05;;;1.75;;
16531;SDS011;8378;57.698;11.958;2022-08-23T13:49:23;3.35;;;1.58;;
16531;SDS011;8378;57.698;11.958;2022-08-23T13:54:24;2.28;;;1.60;;
16531;SDS011;8378;57.698;11.958;2022-08-23T13:56:52;3.15;;;1.90;;
16531;SDS011;8378;57.698;11.958;2022-08-23T13:59:28;1.95;;;1.60;;
16531;SDS011;8378;57.698;11.958;2022-08-23T14:01:56;2.75;;;1.65;;
16531;SDS011;8378;57.698;11.958;2022-08-23T14:04:23;5.00;;;1.67;;
16531;SDS011;8378;57.698;11.958;2022-08-23T14:06:48;2.78;;;1.85;;
16531;SDS011;8378;57.698;11.958;2022-08-23T14:09:14;4.40;;;1.75;;
16531;SDS011;8378;57.698;11.958;2022-08-23T14:11:40;3.00;;;1.63;;
16531;SDS011;8378;57.698;11.958;2022-08-23T14:14:07;2.53;;;1.50;;
16531;SDS011;8378;57.698;11.958;2022-08-23T14:16:35;2.25;;;1.40;;
16531;SDS011;8378;57.698;11.958;2022-08-23T14:19:05;3.30;;;1.55;;
16531;SDS011;8378;57.698;11.958;2022-08-23T14:21:32;1.58;;;1.23;;
16531;SDS011;8378;57.698;11.958;2022-08-23T14:23:58;3.90;;;1.65;;
16531;SDS011;8378;57.698;11.958;2022-08-23T14:26:24;2.88;;;1.63;;
16531;SDS011;8378;57.698;11.958;2022-08-23T14:28:50;2.42;;;1.30;;
16531;SDS011;8378;57.698;11.958;2022-08-23T14:31:16;2.38;;;1.40;;
16531;SDS011;8378;57.698;11.958;2022-08-23T14:33:43;3.20;;;1.40;;
16531;SDS011;8378;57.698;11.958;2022-08-23T14:36:09;2.45;;;1.55;;
16531;SDS011;8378;57.698;11.958;2022-08-23T14:38:36;2.38;;;1.40;;
16531;SDS011;8378;57.698;11.958;2022-08-23T14:41:03;2.40;;;1.45;;
16531;SDS011;8378;57.698;11.958;2022-08-23T14:43:32;3.22;;;1.63;;
16531;SDS011;8378;57.698;11.958;2022-08-23T14:45:58;3.08;;;1.77;;
16531;SDS011;8378;57.698;11.958;2022-08-23T14:48:25;2.50;;;1.50;;
16531;SDS011;8378;57.698;11.958;2022-08-23T14:50:51;3.80;;;1.60;;
16531;SDS011;8378;57.698;11.958;2022-08-23T14:53:18;2.03;;;1.48;;
16531;SDS011;8378;57.698;11.958;2022-08-23T14:55:46;3.33;;;1.50;;
16531;SDS011;8378;57.698;11.958;2022-08-23T14:58:13;3.13;;;1.70;;
16531;SDS011;8378;57.698;11.958;2022-08-23T15:00:40;3.40;;;1.60;;
16531;SDS011;8378;57.698;11.958;2022-08-23T15:03:07;2.50;;;1.45;;
16531;SDS011;8378;57.698;11.958;2022-08-23T15:05:34;6.50;;;1.98;;
16531;SDS011;8378;57.698;11.958;2022-08-23T15:08:00;2.95;;;1.63;;
16531;SDS011;8378;57.698;11.958;2022-08-23T15:10:26;2.08;;;1.38;;
16531;SDS011;8378;57.698;11.958;2022-08-23T15:12:52;3.47;;;1.60;;
16531;SDS011;8378;57.698;11.958;2022-08-23T15:15:18;2.05;;;1.60;;
16531;SDS011;8378;57.698;11.958;2022-08-23T15:18:06;3.80;;;1.55;;
16531;SDS011;8378;57.698;11.958;2022-08-23T15:20:34;2.58;;;1.40;;
16531;SDS011;8378;57.698;11.958;2022-08-23T15:23:02;2.17;;;1.58;;
16531;SDS011;8378;57.698;11.958;2022-08-23T15:25:29;2.13;;;1.65;;
16531;SDS011;8378;57.698;11.958;2022-08-23T15:27:57;3.17;;;1.85;;
16531;SDS011;8378;57.698;11.958;2022-08-23T15:30:24;5.18;;;1.67;;
16531;SDS011;8378;57.698;11.958;2022-08-23T15:32:49;3.33;;;1.90;;
16531;SDS011;8378;57.698;11.958;2022-08-23T15:35:15;3.33;;;1.75;;
16531;SDS011;8378;57.698;11.958;2022-08-23T15:37:41;5.40;;;1.90;;
16531;SDS011;8378;57.698;11.958;2022-08-23T15:40:07;3.08;;;1.75;;
16531;SDS011;8378;57.698;11.958;2022-08-23T15:42:33;2.55;;;1.75;;
16531;SDS011;8378;57.698;11.958;2022-08-23T15:44:59;5.05;;;2.42;;
16531;SDS011;8378;57.698;11.958;2022-08-23T15:47:26;4.13;;;1.70;;
16531;SDS011;8378;57.698;11.958;2022-08-23T15:49:53;3.10;;;1.77;;
16531;SDS011;8378;57.698;11.958;2022-08-23T15:52:19;4.28;;;1.80;;
16531;SDS011;8378;57.698;11.958;2022-08-23T15:54:46;4.68;;;1.65;;
16531;SDS011;8378;57.698;11.958;2022-08-23T15:57:15;4.32;;;1.90;;
16531;SDS011;8378;57.698;11.958;2022-08-23T15:59:44;4.40;;;1.90;;
16531;SDS011;8378;57.698;11.958;2022-08-23T16:02:10;3.28;;;1.95;;
16531;SDS011;8378;57.698;11.958;2022-08-23T16:04:36;3.40;;;2.10;;
16531;SDS011;8378;57.698;11.958;2022-08-23T16:07:06;3.38;;;2.13;;
16531;SDS011;8378;57.698;11.958;2022-08-23T16:09:33;3.53;;;1.90;;
16531;SDS011;8378;57.698;11.958;2022-08-23T16:12:00;5.55;;;2.40;;
16531;SDS011;8378;57.698;11.958;2022-08-23T16:14:26;5.13;;;2.22;;
16531;SDS011;8378;57.698;11.958;2022-08-23T16:16:52;4.25;;;1.80;;
16531;SDS011;8378;57.698;11.958;2022-08-23T16:19:17;3.55;;;1.90;;
16531;SDS011;8378;57.698;11.958;2022-08-23T16:21:43;3.20;;;2.03;;
16531;SDS011;8378;57.698;11.958;2022-08-23T16:24:10;3.25;;;1.88;;
16531;SDS011;8378;57.698;11.958;2022-08-23T16:26:36;3.85;;;1.92;;
16531;SDS011;8378;57.698;11.958;2022-08-23T16:29:05;3.40;;;1.60;;
16531;SDS011;8378;57.698;11.958;2022-08-23T16:31:32;4.07;;;2.10;;
16531;SDS011;8378;57.698;11.958;2022-08-23T16:33:59;2.88;;;1.85;;
16531;SDS011;8378;57.698;11.958;2022-08-23T16:36:26;2.97;;;2.00;;
16531;SDS011;8378;57.698;11.958;2022-08-23T16:38:52;5.03;;;2.10;;
16531;SDS011;8378;57.698;11.958;2022-08-23T16:41:19;4.10;;;1.80;;